EW6287 Weather Reports


time (UTC)temp
C
wind
direction
speed
KPH
gust
KPH
rain 1hr
cm
rain 24hr
cm
rain mn
cm
humidity
%
barometer
mb
20240614131537 17 267 0.0 0.0 0.00 0.00 0.00 77 1016.6
20240614130034 17 267 0.0 0.0 0.00 0.00 0.00 78 1016.8
20240614124530 16 267 0.0 0.0 0.00 0.00 0.00 81 1016.7
20240614123037 15 267 0.0 0.0 0.00 0.00 0.00 83 1016.4
20240614121526 15 267 0.0 0.0 0.00 0.00 0.00 86 1016.3
20240614120025 13 267 0.0 0.0 0.00 0.00 0.00 88 1016.2
20240614114543 13 267 0.0 0.0 0.00 0.00 0.00 89 1016.0
20240614113022 12 267 0.0 0.0 0.00 0.00 0.00 89 1015.7
20240614111542 12 267 0.0 0.0 0.00 0.00 0.00 89 1015.7
20240614110020 12 267 0.0 0.0 0.00 0.00 0.00 88 1015.7
20240614104519 12 267 0.0 0.0 0.00 0.00 0.00 88 1015.3
20240614103017 12 267 0.0 1.6 0.00 0.00 0.00 88 1015.1
20240614101518 12 267 0.0 1.6 0.00 0.00 0.00 88 1015.0
20240614100017 12 267 0.0 0.0 0.00 0.00 0.00 88 1014.8
20240614094529 12 267 0.0 0.0 0.00 0.00 0.00 88 1014.6
20240614093034 12 267 0.0 0.0 0.00 0.00 0.00 88 1014.5
20240614091512 13 267 0.0 0.0 0.00 0.00 0.00 87 1014.3
20240614090010 12 267 0.0 0.0 0.00 0.00 0.00 87 1014.2
20240614084516 12 267 0.0 3.2 0.00 0.00 0.00 87 1014.3
20240614083007 12 267 0.0 4.8 0.00 0.00 0.00 86 1014.0
20240614081505 13 267 0.0 0.0 0.00 0.00 0.00 85 1013.7
20240614080004 13 267 0.0 0.0 0.00 0.00 0.00 85 1013.8
20240614074502 13 267 0.0 0.0 0.00 0.00 0.00 84 1013.8
20240614073005 13 267 0.0 3.2 0.00 0.00 0.00 84 1013.5
20240614071559 13 267 0.0 0.0 0.00 0.00 0.00 82 1013.7
20240614070116 13 267 0.0 0.0 0.00 0.00 0.00 81 1013.7
20240614064556 14 267 0.0 4.8 0.00 0.00 0.00 80 1013.5
20240614063057 14 267 0.0 3.2 0.00 0.00 0.00 79 1013.5
20240614061552 14 267 0.0 4.8 0.00 0.00 0.00 79 1013.3
20240614060050 15 267 0.0 8.0 0.00 0.00 0.00 79 1013.1
20240614054550 14 267 0.0 4.8 0.00 0.00 0.00 79 1013.1
20240614053049 15 267 0.0 1.6 0.00 0.00 0.00 79 1013.1
20240614051549 15 267 0.0 4.8 0.00 0.00 0.00 78 1012.8
20240614050049 15 267 0.0 4.8 0.00 0.00 0.00 76 1012.7
20240614044549 15 267 0.0 4.8 0.00 0.00 0.00 76 1012.7
20240614043040 15 267 0.0 4.8 0.00 0.00 0.00 75 1012.6
20240614041542 16 267 1.6 6.4 0.00 0.00 0.00 75 1012.3
20240614040040 16 267 0.0 4.8 0.00 0.00 0.00 74 1012.4
20240614034541 16 267 0.0 0.0 0.00 0.00 0.00 73 1012.3
20240614033043 16 267 0.0 3.2 0.00 0.00 0.00 72 1012.0
20240614031535 17 267 0.0 4.8 0.00 0.00 0.00 71 1011.9
20240614030038 17 267 0.0 1.6 0.00 0.00 0.00 68 1011.8
20240614024533 17 267 1.6 6.4 0.00 0.00 0.00 66 1011.5
20240614023031 18 267 1.6 8.0 0.00 0.00 0.00 65 1011.1
20240614021531 18 267 0.0 9.7 0.00 0.00 0.00 64 1010.9
20240614020028 18 271 1.6 6.4 0.00 0.00 0.00 63 1010.8
20240614014527 19 274 1.6 12.9 0.00 0.00 0.00 61 1010.5
20240614013028 20 282 1.6 8.0 0.00 0.00 0.00 59 1010.5
20240614011540 20 300 0.0 14.5 0.00 0.00 0.00 58 1010.5
20240614010024 20 302 0.0 14.5 0.00 0.00 0.00 58 1010.4
20240614004523 21 274 1.6 11.3 0.00 0.00 0.00 57 1010.1
20240614003024 21 294 1.6 16.1 0.00 0.00 0.00 55 1010.2
20240614001532 21 280 4.8 25.7 0.00 0.00 0.00 55 1010.1
20240614000020 21 288 4.8 17.7 0.00 0.00 0.00 54 1009.9
20240613234523 22 318 3.2 19.3 0.00 0.00 0.00 51 1009.6
20240613233017 22 276 1.6 19.3 0.00 0.00 0.00 51 1009.5
20240613231515 22 285 3.2 14.5 0.00 0.00 0.00 53 1009.2
20240613230020 23 288 3.2 19.3 0.00 0.66 0.00 50 1008.9
20240613224512 23 299 1.6 22.5 0.00 0.66 0.00 48 1008.9
20240613223012 23 307 3.2 20.9 0.00 0.66 0.00 45 1008.6
20240613221514 23 285 3.2 22.5 0.00 0.66 0.00 46 1008.2
20240613220009 24 269 6.4 19.3 0.00 0.66 0.00 43 1008.2
20240613214510 24 296 3.2 16.1 0.00 0.66 0.00 44 1008.1
20240613213007 24 287 8.0 25.7 0.00 0.66 0.00 41 1007.8
20240613211511 24 318 6.4 20.9 0.00 0.66 0.00 43 1007.7
20240613210007 24 269 9.7 24.1 0.00 0.66 0.00 40 1007.7
20240613204506 25 276 8.0 22.5 0.00 0.66 0.00 39 1007.6
20240613203007 25 228 8.0 22.5 0.00 0.66 0.00 38 1007.3
20240613201503 25 267 9.7 38.6 0.00 0.66 0.00 38 1007.5
20240613200010 23 334 3.2 19.3 0.00 0.66 0.00 47 1007.8
20240613194505 24 259 4.8 17.7 0.00 0.66 0.00 42 1007.6
20240613193001 25 287 1.6 12.9 0.00 0.66 0.00 42 1007.2
20240613191501 23 341 6.4 22.5 0.00 0.66 0.00 45 1007.6
20240613190104 23 295 1.6 8.0 0.00 0.66 0.00 45 1007.6
20240613184612 23 207 4.8 19.3 0.00 0.66 0.00 42 1007.6
20240613183108 23 314 9.7 25.7 0.00 0.66 0.00 41 1007.7
20240613181607 23 188 3.2 16.1 0.00 0.66 0.00 42 1007.9
20240613180100 24 304 3.2 19.3 0.00 0.66 0.00 44 1007.7
20240613174636 23 232 1.6 17.7 0.00 0.66 0.00 47 1007.8
20240613173117 24 255 1.6 16.1 0.00 0.66 0.00 43 1007.8
20240613171555 24 265 4.8 16.1 0.00 0.66 0.00 46 1007.8
20240613170132 23 349 1.6 11.3 0.00 0.66 0.00 43 1007.7
20240613164600 23 251 1.6 14.5 0.00 0.66 0.00 47 1007.9
20240613163114 23 278 3.2 12.9 0.00 0.66 0.00 46 1007.7
20240613161552 23 282 3.2 19.3 0.00 0.66 0.00 45 1007.6
20240613160108 23 306 3.2 14.5 0.00 0.66 0.00 51 1007.6
20240613154551 22 218 1.6 11.3 0.00 0.66 0.00 51 1007.6
20240613153107 22 351 3.2 14.5 0.00 0.66 0.00 49 1007.4
20240613151545 22 292 0.0 11.3 0.00 0.66 0.00 51 1007.3
20240613150047 21 290 0.0 11.3 0.00 0.66 0.00 53 1007.4
20240613144538 21 288 3.2 9.7 0.00 0.66 0.00 55 1007.2
20240613143035 20 282 4.8 11.3 0.00 0.66 0.00 60 1007.3
20240613141532 20 304 3.2 12.9 0.00 0.66 0.00 60 1007.3
20240613140028 20 288 4.8 11.3 0.00 0.66 0.00 66 1006.9
20240613134525 19 297 3.2 12.9 0.00 0.66 0.00 70 1006.8
20240613133029 18 301 3.2 16.1 0.00 0.66 0.00 73 1006.8